sensor_id;sensor_type;location;lat;lon;timestamp;P1;durP1;ratioP1;P2;durP2;ratioP2
40373;SDS011;26079;45.958;12.492;2023-09-19T00:00:52;11.90;;;6.35;;
40373;SDS011;26079;45.958;12.492;2023-09-19T00:03:21;21.45;;;6.60;;
40373;SDS011;26079;45.958;12.492;2023-09-19T00:05:48;11.55;;;6.55;;
40373;SDS011;26079;45.958;12.492;2023-09-19T00:08:15;13.20;;;6.07;;
40373;SDS011;26079;45.958;12.492;2023-09-19T00:10:41;10.38;;;7.35;;
40373;SDS011;26079;45.958;12.492;2023-09-19T00:13:08;22.33;;;7.68;;
40373;SDS011;26079;45.958;12.492;2023-09-19T00:15:41;19.17;;;7.10;;
40373;SDS011;26079;45.958;12.492;2023-09-19T00:18:13;9.23;;;5.22;;
40373;SDS011;26079;45.958;12.492;2023-09-19T00:20:40;12.48;;;5.63;;
40373;SDS011;26079;45.958;12.492;2023-09-19T00:23:07;15.95;;;5.72;;
40373;SDS011;26079;45.958;12.492;2023-09-19T00:25:36;11.20;;;6.07;;
40373;SDS011;26079;45.958;12.492;2023-09-19T00:28:05;14.35;;;6.45;;
40373;SDS011;26079;45.958;12.492;2023-09-19T00:30:33;12.15;;;5.82;;
40373;SDS011;26079;45.958;12.492;2023-09-19T00:32:59;16.25;;;6.43;;
40373;SDS011;26079;45.958;12.492;2023-09-19T00:35:26;12.10;;;6.47;;
40373;SDS011;26079;45.958;12.492;2023-09-19T00:37:52;12.07;;;5.75;;
40373;SDS011;26079;45.958;12.492;2023-09-19T00:40:19;16.45;;;6.18;;
40373;SDS011;26079;45.958;12.492;2023-09-19T00:42:46;17.02;;;5.75;;
40373;SDS011;26079;45.958;12.492;2023-09-19T00:45:14;14.35;;;5.35;;
40373;SDS011;26079;45.958;12.492;2023-09-19T00:47:43;10.70;;;5.00;;
40373;SDS011;26079;45.958;12.492;2023-09-19T00:50:17;12.95;;;4.93;;
40373;SDS011;26079;45.958;12.492;2023-09-19T00:52:46;19.67;;;5.57;;
40373;SDS011;26079;45.958;12.492;2023-09-19T00:55:12;15.32;;;5.28;;
40373;SDS011;26079;45.958;12.492;2023-09-19T00:57:41;21.45;;;6.25;;
40373;SDS011;26079;45.958;12.492;2023-09-19T01:00:07;19.45;;;5.85;;
40373;SDS011;26079;45.958;12.492;2023-09-19T01:02:37;20.17;;;6.18;;
40373;SDS011;26079;45.958;12.492;2023-09-19T01:05:03;11.00;;;5.70;;
40373;SDS011;26079;45.958;12.492;2023-09-19T01:07:31;19.83;;;7.72;;
40373;SDS011;26079;45.958;12.492;2023-09-19T01:10:03;9.38;;;5.90;;
40373;SDS011;26079;45.958;12.492;2023-09-19T01:17:48;9.73;;;5.55;;
40373;SDS011;26079;45.958;12.492;2023-09-19T01:28:53;20.92;;;6.03;;
40373;SDS011;26079;45.958;12.492;2023-09-19T01:31:31;13.15;;;6.00;;
40373;SDS011;26079;45.958;12.492;2023-09-19T01:34:03;13.02;;;5.95;;
40373;SDS011;26079;45.958;12.492;2023-09-19T01:36:33;13.25;;;5.78;;
40373;SDS011;26079;45.958;12.492;2023-09-19T01:39:04;13.32;;;6.78;;
40373;SDS011;26079;45.958;12.492;2023-09-19T01:41:46;12.40;;;5.97;;
40373;SDS011;26079;45.958;12.492;2023-09-19T01:44:17;18.15;;;5.82;;
40373;SDS011;26079;45.958;12.492;2023-09-19T01:46:50;13.07;;;6.85;;
40373;SDS011;26079;45.958;12.492;2023-09-19T01:52:11;19.00;;;6.18;;
40373;SDS011;26079;45.958;12.492;2023-09-19T01:54:51;26.45;;;7.43;;
40373;SDS011;26079;45.958;12.492;2023-09-19T01:57:30;9.35;;;5.78;;
40373;SDS011;26079;45.958;12.492;2023-09-19T02:00:02;9.60;;;5.70;;
40373;SDS011;26079;45.958;12.492;2023-09-19T02:02:38;14.20;;;5.53;;
40373;SDS011;26079;45.958;12.492;2023-09-19T02:05:07;21.42;;;5.82;;
40373;SDS011;26079;45.958;12.492;2023-09-19T02:07:33;18.13;;;6.07;;
40373;SDS011;26079;45.958;12.492;2023-09-19T02:10:02;18.60;;;6.50;;
40373;SDS011;26079;45.958;12.492;2023-09-19T02:12:30;14.65;;;6.38;;
40373;SDS011;26079;45.958;12.492;2023-09-19T02:14:58;13.25;;;6.38;;
40373;SDS011;26079;45.958;12.492;2023-09-19T02:17:24;16.10;;;6.15;;
40373;SDS011;26079;45.958;12.492;2023-09-19T02:19:54;13.32;;;6.43;;
40373;SDS011;26079;45.958;12.492;2023-09-19T02:22:21;13.02;;;6.75;;
40373;SDS011;26079;45.958;12.492;2023-09-19T02:24:47;16.50;;;6.13;;
40373;SDS011;26079;45.958;12.492;2023-09-19T02:27:13;20.02;;;6.68;;
40373;SDS011;26079;45.958;12.492;2023-09-19T02:29:41;19.77;;;8.07;;
40373;SDS011;26079;45.958;12.492;2023-09-19T02:32:07;16.33;;;5.93;;
40373;SDS011;26079;45.958;12.492;2023-09-19T02:34:34;22.23;;;6.93;;
40373;SDS011;26079;45.958;12.492;2023-09-19T02:37:02;16.15;;;4.88;;
40373;SDS011;26079;45.958;12.492;2023-09-19T02:39:30;15.95;;;6.47;;
40373;SDS011;26079;45.958;12.492;2023-09-19T02:41:59;20.33;;;6.03;;
40373;SDS011;26079;45.958;12.492;2023-09-19T02:44:25;13.68;;;5.53;;
40373;SDS011;26079;45.958;12.492;2023-09-19T02:46:50;10.88;;;6.18;;
40373;SDS011;26079;45.958;12.492;2023-09-19T02:49:16;13.23;;;5.60;;
40373;SDS011;26079;45.958;12.492;2023-09-19T02:51:45;14.70;;;6.07;;
40373;SDS011;26079;45.958;12.492;2023-09-19T02:54:12;18.17;;;6.32;;
40373;SDS011;26079;45.958;12.492;2023-09-19T02:56:38;26.08;;;6.35;;
40373;SDS011;26079;45.958;12.492;2023-09-19T02:59:04;14.30;;;5.72;;
40373;SDS011;26079;45.958;12.492;2023-09-19T03:01:30;13.93;;;6.60;;
40373;SDS011;26079;45.958;12.492;2023-09-19T03:03:57;12.45;;;5.20;;
40373;SDS011;26079;45.958;12.492;2023-09-19T03:06:23;19.40;;;6.38;;
40373;SDS011;26079;45.958;12.492;2023-09-19T03:08:49;14.85;;;7.63;;
40373;SDS011;26079;45.958;12.492;2023-09-19T03:11:16;11.95;;;5.03;;
40373;SDS011;26079;45.958;12.492;2023-09-19T03:13:50;22.73;;;7.20;;
40373;SDS011;26079;45.958;12.492;2023-09-19T03:16:19;19.83;;;8.57;;
40373;SDS011;26079;45.958;12.492;2023-09-19T03:18:46;12.32;;;6.10;;
40373;SDS011;26079;45.958;12.492;2023-09-19T03:21:14;17.73;;;7.10;;
40373;SDS011;26079;45.958;12.492;2023-09-19T03:23:41;30.77;;;8.40;;
40373;SDS011;26079;45.958;12.492;2023-09-19T03:26:09;15.15;;;6.57;;
40373;SDS011;26079;45.958;12.492;2023-09-19T03:28:41;17.00;;;6.20;;
40373;SDS011;26079;45.958;12.492;2023-09-19T03:31:08;20.52;;;7.85;;
40373;SDS011;26079;45.958;12.492;2023-09-19T03:33:35;16.92;;;5.72;;
40373;SDS011;26079;45.958;12.492;2023-09-19T03:36:01;11.23;;;6.25;;
40373;SDS011;26079;45.958;12.492;2023-09-19T03:38:30;13.88;;;6.35;;
40373;SDS011;26079;45.958;12.492;2023-09-19T03:40:57;12.90;;;6.82;;
40373;SDS011;26079;45.958;12.492;2023-09-19T03:43:24;15.88;;;6.88;;
40373;SDS011;26079;45.958;12.492;2023-09-19T03:45:49;20.13;;;7.38;;
40373;SDS011;26079;45.958;12.492;2023-09-19T03:48:16;10.73;;;5.32;;
40373;SDS011;26079;45.958;12.492;2023-09-19T03:50:42;13.55;;;5.28;;
40373;SDS011;26079;45.958;12.492;2023-09-19T03:53:09;27.60;;;6.35;;
40373;SDS011;26079;45.958;12.492;2023-09-19T03:55:35;14.63;;;4.93;;
40373;SDS011;26079;45.958;12.492;2023-09-19T03:58:03;20.13;;;6.40;;
40373;SDS011;26079;45.958;12.492;2023-09-19T04:00:29;21.92;;;6.70;;
40373;SDS011;26079;45.958;12.492;2023-09-19T04:02:55;13.57;;;5.72;;
40373;SDS011;26079;45.958;12.492;2023-09-19T04:05:24;12.70;;;5.55;;
40373;SDS011;26079;45.958;12.492;2023-09-19T04:07:50;12.90;;;6.00;;
40373;SDS011;26079;45.958;12.492;2023-09-19T04:10:16;13.10;;;5.60;;
40373;SDS011;26079;45.958;12.492;2023-09-19T04:12:52;11.88;;;6.38;;
40373;SDS011;26079;45.958;12.492;2023-09-19T04:15:18;11.85;;;7.28;;
40373;SDS011;26079;45.958;12.492;2023-09-19T04:17:44;9.23;;;5.13;;
40373;SDS011;26079;45.958;12.492;2023-09-19T04:20:09;14.18;;;6.30;;
40373;SDS011;26079;45.958;12.492;2023-09-19T04:22:38;13.52;;;5.90;;
40373;SDS011;26079;45.958;12.492;2023-09-19T04:25:04;12.88;;;6.72;;
40373;SDS011;26079;45.958;12.492;2023-09-19T04:27:32;14.85;;;6.97;;
40373;SDS011;26079;45.958;12.492;2023-09-19T04:29:58;18.77;;;7.43;;
40373;SDS011;26079;45.958;12.492;2023-09-19T04:32:24;7.70;;;5.78;;
40373;SDS011;26079;45.958;12.492;2023-09-19T04:34:54;7.80;;;6.47;;
40373;SDS011;26079;45.958;12.492;2023-09-19T04:37:24;14.15;;;6.75;;
40373;SDS011;26079;45.958;12.492;2023-09-19T04:39:50;9.55;;;5.57;;
40373;SDS011;26079;45.958;12.492;2023-09-19T04:42:16;17.08;;;7.07;;
40373;SDS011;26079;45.958;12.492;2023-09-19T04:44:43;10.38;;;6.97;;
40373;SDS011;26079;45.958;12.492;2023-09-19T04:47:08;10.40;;;6.80;;
40373;SDS011;26079;45.958;12.492;2023-09-19T04:49:37;11.10;;;6.53;;
40373;SDS011;26079;45.958;12.492;2023-09-19T04:52:02;14.27;;;6.53;;
40373;SDS011;26079;45.958;12.492;2023-09-19T04:54:28;14.63;;;6.13;;
40373;SDS011;26079;45.958;12.492;2023-09-19T04:56:54;20.67;;;7.15;;
40373;SDS011;26079;45.958;12.492;2023-09-19T04:59:20;11.73;;;6.53;;
40373;SDS011;26079;45.958;12.492;2023-09-19T05:01:45;22.30;;;6.18;;
40373;SDS011;26079;45.958;12.492;2023-09-19T05:04:11;12.43;;;6.13;;
40373;SDS011;26079;45.958;12.492;2023-09-19T05:06:38;16.88;;;7.13;;
40373;SDS011;26079;45.958;12.492;2023-09-19T05:09:04;12.07;;;7.40;;
40373;SDS011;26079;45.958;12.492;2023-09-19T05:11:30;17.70;;;9.02;;
40373;SDS011;26079;45.958;12.492;2023-09-19T05:13:56;15.52;;;7.15;;
40373;SDS011;26079;45.958;12.492;2023-09-19T05:16:22;10.40;;;6.35;;
40373;SDS011;26079;45.958;12.492;2023-09-19T05:18:47;12.93;;;6.15;;
40373;SDS011;26079;45.958;12.492;2023-09-19T05:21:14;12.65;;;7.22;;
40373;SDS011;26079;45.958;12.492;2023-09-19T05:23:40;13.93;;;6.78;;
40373;SDS011;26079;45.958;12.492;2023-09-19T05:26:06;9.57;;;6.53;;
40373;SDS011;26079;45.958;12.492;2023-09-19T05:28:32;8.43;;;6.43;;
40373;SDS011;26079;45.958;12.492;2023-09-19T05:31:02;13.57;;;6.68;;
40373;SDS011;26079;45.958;12.492;2023-09-19T05:33:28;21.70;;;6.95;;
40373;SDS011;26079;45.958;12.492;2023-09-19T05:35:55;9.50;;;6.70;;
40373;SDS011;26079;45.958;12.492;2023-09-19T05:38:21;7.38;;;5.38;;
40373;SDS011;26079;45.958;12.492;2023-09-19T05:40:47;7.80;;;6.13;;
40373;SDS011;26079;45.958;12.492;2023-09-19T05:43:13;10.27;;;6.20;;
40373;SDS011;26079;45.958;12.492;2023-09-19T05:45:45;15.07;;;6.45;;
40373;SDS011;26079;45.958;12.492;2023-09-19T05:48:14;11.70;;;6.57;;
40373;SDS011;26079;45.958;12.492;2023-09-19T05:50:41;12.20;;;6.15;;
40373;SDS011;26079;45.958;12.492;2023-09-19T05:53:07;9.13;;;6.57;;
40373;SDS011;26079;45.958;12.492;2023-09-19T05:55:39;14.25;;;6.05;;
40373;SDS011;26079;45.958;12.492;2023-09-19T05:58:05;12.10;;;6.45;;
40373;SDS011;26079;45.958;12.492;2023-09-19T06:00:31;10.98;;;5.85;;
40373;SDS011;26079;45.958;12.492;2023-09-19T06:02:57;11.27;;;5.65;;
40373;SDS011;26079;45.958;12.492;2023-09-19T06:05:24;10.30;;;6.63;;
40373;SDS011;26079;45.958;12.492;2023-09-19T06:07:53;13.35;;;7.30;;
40373;SDS011;26079;45.958;12.492;2023-09-19T06:10:19;9.43;;;6.15;;
40373;SDS011;26079;45.958;12.492;2023-09-19T06:12:48;9.45;;;5.93;;
40373;SDS011;26079;45.958;12.492;2023-09-19T06:15:15;10.02;;;6.00;;
40373;SDS011;26079;45.958;12.492;2023-09-19T06:17:50;18.23;;;7.68;;
40373;SDS011;26079;45.958;12.492;2023-09-19T06:20:20;12.73;;;6.00;;
40373;SDS011;26079;45.958;12.492;2023-09-19T06:22:47;12.00;;;5.95;;
40373;SDS011;26079;45.958;12.492;2023-09-19T06:25:14;9.32;;;6.57;;
40373;SDS011;26079;45.958;12.492;2023-09-19T06:30:22;10.68;;;6.20;;
40373;SDS011;26079;45.958;12.492;2023-09-19T06:32:49;8.27;;;5.38;;
40373;SDS011;26079;45.958;12.492;2023-09-19T06:35:20;10.13;;;6.70;;
40373;SDS011;26079;45.958;12.492;2023-09-19T06:37:46;10.73;;;5.85;;
40373;SDS011;26079;45.958;12.492;2023-09-19T06:40:13;15.57;;;5.95;;
40373;SDS011;26079;45.958;12.492;2023-09-19T06:42:46;16.02;;;7.10;;
40373;SDS011;26079;45.958;12.492;2023-09-19T06:45:15;8.45;;;4.72;;
40373;SDS011;26079;45.958;12.492;2023-09-19T06:47:44;8.10;;;4.55;;
40373;SDS011;26079;45.958;12.492;2023-09-19T06:50:11;11.85;;;4.82;;
40373;SDS011;26079;45.958;12.492;2023-09-19T06:52:42;12.45;;;4.95;;
40373;SDS011;26079;45.958;12.492;2023-09-19T06:55:08;10.30;;;4.35;;
40373;SDS011;26079;45.958;12.492;2023-09-19T06:57:36;10.05;;;5.07;;
40373;SDS011;26079;45.958;12.492;2023-09-19T07:00:02;8.80;;;4.72;;
40373;SDS011;26079;45.958;12.492;2023-09-19T07:02:34;7.88;;;4.75;;
40373;SDS011;26079;45.958;12.492;2023-09-19T07:05:00;9.55;;;4.72;;
40373;SDS011;26079;45.958;12.492;2023-09-19T07:07:26;17.02;;;6.55;;
40373;SDS011;26079;45.958;12.492;2023-09-19T07:09:51;9.48;;;5.20;;
40373;SDS011;26079;45.958;12.492;2023-09-19T07:12:19;17.75;;;6.30;;
40373;SDS011;26079;45.958;12.492;2023-09-19T07:14:44;11.57;;;4.78;;
40373;SDS011;26079;45.958;12.492;2023-09-19T07:17:10;34.35;;;5.70;;
40373;SDS011;26079;45.958;12.492;2023-09-19T07:19:36;8.82;;;5.60;;
40373;SDS011;26079;45.958;12.492;2023-09-19T07:22:02;7.53;;;5.18;;
40373;SDS011;26079;45.958;12.492;2023-09-19T07:24:28;17.02;;;5.53;;
40373;SDS011;26079;45.958;12.492;2023-09-19T07:26:54;13.80;;;5.20;;
40373;SDS011;26079;45.958;12.492;2023-09-19T07:29:20;10.30;;;5.50;;
40373;SDS011;26079;45.958;12.492;2023-09-19T07:31:46;6.55;;;4.07;;
40373;SDS011;26079;45.958;12.492;2023-09-19T07:34:12;16.33;;;4.53;;
40373;SDS011;26079;45.958;12.492;2023-09-19T07:36:39;9.65;;;4.70;;
40373;SDS011;26079;45.958;12.492;2023-09-19T07:39:05;19.08;;;4.80;;
40373;SDS011;26079;45.958;12.492;2023-09-19T07:41:32;7.75;;;3.75;;
40373;SDS011;26079;45.958;12.492;2023-09-19T07:43:58;9.27;;;5.10;;
40373;SDS011;26079;45.958;12.492;2023-09-19T07:46:23;12.68;;;4.90;;
40373;SDS011;26079;45.958;12.492;2023-09-19T07:48:51;22.83;;;7.72;;
40373;SDS011;26079;45.958;12.492;2023-09-19T07:51:17;15.10;;;5.10;;
40373;SDS011;26079;45.958;12.492;2023-09-19T07:53:42;16.30;;;5.43;;
40373;SDS011;26079;45.958;12.492;2023-09-19T07:56:09;15.57;;;6.45;;
40373;SDS011;26079;45.958;12.492;2023-09-19T07:58:35;18.33;;;6.55;;
40373;SDS011;26079;45.958;12.492;2023-09-19T08:01:04;22.50;;;7.85;;
40373;SDS011;26079;45.958;12.492;2023-09-19T08:03:34;15.50;;;5.53;;
40373;SDS011;26079;45.958;12.492;2023-09-19T08:06:02;17.83;;;5.57;;
40373;SDS011;26079;45.958;12.492;2023-09-19T08:08:29;20.48;;;5.47;;
40373;SDS011;26079;45.958;12.492;2023-09-19T08:10:57;11.48;;;5.03;;
40373;SDS011;26079;45.958;12.492;2023-09-19T08:13:23;9.55;;;4.72;;
40373;SDS011;26079;45.958;12.492;2023-09-19T08:15:50;15.13;;;4.50;;
40373;SDS011;26079;45.958;12.492;2023-09-19T08:18:18;16.17;;;6.60;;
40373;SDS011;26079;45.958;12.492;2023-09-19T08:20:48;23.73;;;6.15;;
40373;SDS011;26079;45.958;12.492;2023-09-19T08:23:15;14.40;;;5.45;;
40373;SDS011;26079;45.958;12.492;2023-09-19T08:25:43;15.02;;;5.03;;
40373;SDS011;26079;45.958;12.492;2023-09-19T08:28:09;15.52;;;5.60;;
40373;SDS011;26079;45.958;12.492;2023-09-19T08:30:37;14.20;;;5.28;;
40373;SDS011;26079;45.958;12.492;2023-09-19T08:33:05;10.13;;;5.55;;
40373;SDS011;26079;45.958;12.492;2023-09-19T08:35:31;13.40;;;4.68;;
40373;SDS011;26079;45.958;12.492;2023-09-19T08:37:57;16.48;;;5.72;;
40373;SDS011;26079;45.958;12.492;2023-09-19T08:40:25;18.95;;;6.22;;
40373;SDS011;26079;45.958;12.492;2023-09-19T08:42:55;14.40;;;6.82;;
40373;SDS011;26079;45.958;12.492;2023-09-19T08:45:22;23.67;;;5.57;;
40373;SDS011;26079;45.958;12.492;2023-09-19T08:50:43;13.05;;;4.78;;
40373;SDS011;26079;45.958;12.492;2023-09-19T08:53:16;16.58;;;5.45;;
40373;SDS011;26079;45.958;12.492;2023-09-19T08:56:06;13.45;;;5.45;;
40373;SDS011;26079;45.958;12.492;2023-09-19T08:58:40;12.25;;;6.25;;
40373;SDS011;26079;45.958;12.492;2023-09-19T09:01:12;15.45;;;4.70;;
40373;SDS011;26079;45.958;12.492;2023-09-19T09:03:40;15.73;;;5.90;;
40373;SDS011;26079;45.958;12.492;2023-09-19T09:06:08;11.68;;;4.70;;
40373;SDS011;26079;45.958;12.492;2023-09-19T09:08:36;17.70;;;6.63;;
40373;SDS011;26079;45.958;12.492;2023-09-19T09:11:04;17.42;;;5.03;;
40373;SDS011;26079;45.958;12.492;2023-09-19T09:13:33;20.20;;;4.88;;
40373;SDS011;26079;45.958;12.492;2023-09-19T09:16:01;12.73;;;4.72;;
40373;SDS011;26079;45.958;12.492;2023-09-19T09:18:28;14.02;;;4.55;;
40373;SDS011;26079;45.958;12.492;2023-09-19T09:20:57;15.57;;;4.25;;
40373;SDS011;26079;45.958;12.492;2023-09-19T09:23:22;19.95;;;4.50;;
40373;SDS011;26079;45.958;12.492;2023-09-19T09:25:50;18.08;;;5.63;;
40373;SDS011;26079;45.958;12.492;2023-09-19T09:28:26;16.05;;;5.65;;
40373;SDS011;26079;45.958;12.492;2023-09-19T09:30:53;14.57;;;5.50;;
40373;SDS011;26079;45.958;12.492;2023-09-19T09:33:20;22.70;;;5.45;;
40373;SDS011;26079;45.958;12.492;2023-09-19T09:41:11;17.50;;;4.60;;
40373;SDS011;26079;45.958;12.492;2023-09-19T09:43:42;21.63;;;4.00;;
40373;SDS011;26079;45.958;12.492;2023-09-19T09:51:37;18.65;;;4.68;;
40373;SDS011;26079;45.958;12.492;2023-09-19T09:54:11;13.80;;;5.05;;
40373;SDS011;26079;45.958;12.492;2023-09-19T10:04:53;22.42;;;5.22;;
40373;SDS011;26079;45.958;12.492;2023-09-19T10:07:40;18.08;;;5.35;;
40373;SDS011;26079;45.958;12.492;2023-09-19T10:12:45;14.52;;;4.72;;
40373;SDS011;26079;45.958;12.492;2023-09-19T10:15:13;31.13;;;5.97;;
40373;SDS011;26079;45.958;12.492;2023-09-19T10:17:44;18.15;;;5.15;;
40373;SDS011;26079;45.958;12.492;2023-09-19T10:20:14;18.25;;;4.72;;
40373;SDS011;26079;45.958;12.492;2023-09-19T10:22:48;16.40;;;4.57;;
40373;SDS011;26079;45.958;12.492;2023-09-19T10:25:25;15.98;;;5.78;;
40373;SDS011;26079;45.958;12.492;2023-09-19T10:30:53;20.30;;;6.32;;
40373;SDS011;26079;45.958;12.492;2023-09-19T10:33:22;17.67;;;5.50;;
40373;SDS011;26079;45.958;12.492;2023-09-19T10:35:52;7.80;;;4.03;;
40373;SDS011;26079;45.958;12.492;2023-09-19T10:38:24;18.00;;;5.22;;
40373;SDS011;26079;45.958;12.492;2023-09-19T10:40:52;15.57;;;4.15;;
40373;SDS011;26079;45.958;12.492;2023-09-19T10:43:20;16.13;;;4.97;;
40373;SDS011;26079;45.958;12.492;2023-09-19T10:45:51;11.20;;;4.32;;
40373;SDS011;26079;45.958;12.492;2023-09-19T10:48:19;13.95;;;3.75;;
40373;SDS011;26079;45.958;12.492;2023-09-19T10:53:29;12.93;;;4.68;;
40373;SDS011;26079;45.958;12.492;2023-09-19T10:56:07;17.98;;;4.93;;
40373;SDS011;26079;45.958;12.492;2023-09-19T10:58:42;19.58;;;5.25;;
40373;SDS011;26079;45.958;12.492;2023-09-19T11:01:09;18.15;;;4.13;;
40373;SDS011;26079;45.958;12.492;2023-09-19T11:03:43;22.85;;;6.22;;
40373;SDS011;26079;45.958;12.492;2023-09-19T11:06:13;25.92;;;4.43;;
40373;SDS011;26079;45.958;12.492;2023-09-19T11:14:28;18.33;;;5.00;;
40373;SDS011;26079;45.958;12.492;2023-09-19T11:30:44;22.50;;;4.32;;
40373;SDS011;26079;45.958;12.492;2023-09-19T11:33:16;19.67;;;5.82;;
40373;SDS011;26079;45.958;12.492;2023-09-19T11:36:15;12.18;;;4.20;;
40373;SDS011;26079;45.958;12.492;2023-09-19T11:46:24;16.92;;;5.80;;
40373;SDS011;26079;45.958;12.492;2023-09-19T11:48:50;16.85;;;5.13;;
40373;SDS011;26079;45.958;12.492;2023-09-19T11:53:50;25.60;;;5.05;;
40373;SDS011;26079;45.958;12.492;2023-09-19T11:56:18;35.55;;;7.65;;
40373;SDS011;26079;45.958;12.492;2023-09-19T11:58:51;19.63;;;4.72;;
40373;SDS011;26079;45.958;12.492;2023-09-19T12:01:24;14.93;;;4.55;;
40373;SDS011;26079;45.958;12.492;2023-09-19T12:03:58;23.77;;;5.82;;
40373;SDS011;26079;45.958;12.492;2023-09-19T12:06:25;24.08;;;6.60;;
40373;SDS011;26079;45.958;12.492;2023-09-19T12:08:52;16.42;;;5.40;;
40373;SDS011;26079;45.958;12.492;2023-09-19T12:11:22;28.25;;;6.90;;
40373;SDS011;26079;45.958;12.492;2023-09-19T12:13:48;12.32;;;4.15;;
40373;SDS011;26079;45.958;12.492;2023-09-19T12:16:15;18.60;;;5.63;;
40373;SDS011;26079;45.958;12.492;2023-09-19T12:18:42;22.75;;;6.40;;
40373;SDS011;26079;45.958;12.492;2023-09-19T12:21:22;21.17;;;5.47;;
40373;SDS011;26079;45.958;12.492;2023-09-19T12:26:44;22.33;;;5.88;;
40373;SDS011;26079;45.958;12.492;2023-09-19T12:29:19;14.85;;;5.68;;
40373;SDS011;26079;45.958;12.492;2023-09-19T12:31:53;15.68;;;5.90;;
40373;SDS011;26079;45.958;12.492;2023-09-19T12:34:26;19.23;;;4.85;;
40373;SDS011;26079;45.958;12.492;2023-09-19T12:37:05;19.42;;;5.47;;
40373;SDS011;26079;45.958;12.492;2023-09-19T12:40:05;13.23;;;4.40;;
40373;SDS011;26079;45.958;12.492;2023-09-19T12:42:42;13.48;;;4.75;;
40373;SDS011;26079;45.958;12.492;2023-09-19T12:45:09;20.60;;;6.07;;
40373;SDS011;26079;45.958;12.492;2023-09-19T12:47:38;19.90;;;8.10;;
40373;SDS011;26079;45.958;12.492;2023-09-19T12:50:08;15.80;;;5.85;;
40373;SDS011;26079;45.958;12.492;2023-09-19T12:52:51;21.33;;;6.45;;
40373;SDS011;26079;45.958;12.492;2023-09-19T12:55:30;24.67;;;5.32;;
40373;SDS011;26079;45.958;12.492;2023-09-19T12:58:09;24.65;;;4.93;;
40373;SDS011;26079;45.958;12.492;2023-09-19T13:00:40;18.55;;;5.28;;
40373;SDS011;26079;45.958;12.492;2023-09-19T13:03:24;26.27;;;6.90;;
40373;SDS011;26079;45.958;12.492;2023-09-19T13:05:59;21.88;;;5.70;;
40373;SDS011;26079;45.958;12.492;2023-09-19T13:08:31;13.55;;;4.82;;
40373;SDS011;26079;45.958;12.492;2023-09-19T13:11:04;13.30;;;4.28;;
40373;SDS011;26079;45.958;12.492;2023-09-19T13:14:43;22.42;;;5.13;;
40373;SDS011;26079;45.958;12.492;2023-09-19T13:22:39;14.40;;;5.53;;
40373;SDS011;26079;45.958;12.492;2023-09-19T13:25:18;12.63;;;4.18;;
40373;SDS011;26079;45.958;12.492;2023-09-19T13:27:46;17.42;;;4.80;;
40373;SDS011;26079;45.958;12.492;2023-09-19T13:30:31;11.20;;;3.55;;
40373;SDS011;26079;45.958;12.492;2023-09-19T13:33:06;14.55;;;4.40;;
40373;SDS011;26079;45.958;12.492;2023-09-19T13:35:35;12.75;;;3.45;;
40373;SDS011;26079;45.958;12.492;2023-09-19T13:38:03;6.50;;;2.35;;
40373;SDS011;26079;45.958;12.492;2023-09-19T13:40:29;7.78;;;3.03;;
40373;SDS011;26079;45.958;12.492;2023-09-19T13:42:55;9.40;;;3.10;;
40373;SDS011;26079;45.958;12.492;2023-09-19T13:45:21;16.65;;;5.55;;
40373;SDS011;26079;45.958;12.492;2023-09-19T13:47:49;13.00;;;3.33;;
40373;SDS011;26079;45.958;12.492;2023-09-19T13:50:15;9.02;;;3.50;;
40373;SDS011;26079;45.958;12.492;2023-09-19T13:52:49;17.35;;;4.20;;
40373;SDS011;26079;45.958;12.492;2023-09-19T13:55:19;10.50;;;3.47;;
40373;SDS011;26079;45.958;12.492;2023-09-19T13:57:48;10.38;;;2.40;;
40373;SDS011;26079;45.958;12.492;2023-09-19T14:00:21;11.77;;;3.03;;
40373;SDS011;26079;45.958;12.492;2023-09-19T14:02:47;9.68;;;2.75;;
40373;SDS011;26079;45.958;12.492;2023-09-19T14:05:17;6.90;;;2.58;;
40373;SDS011;26079;45.958;12.492;2023-09-19T14:07:43;7.30;;;2.60;;
40373;SDS011;26079;45.958;12.492;2023-09-19T14:10:10;13.60;;;4.28;;
40373;SDS011;26079;45.958;12.492;2023-09-19T14:12:37;13.27;;;2.80;;
40373;SDS011;26079;45.958;12.492;2023-09-19T14:15:03;6.55;;;2.40;;
40373;SDS011;26079;45.958;12.492;2023-09-19T14:17:29;11.60;;;2.80;;
40373;SDS011;26079;45.958;12.492;2023-09-19T14:19:57;8.48;;;2.80;;
40373;SDS011;26079;45.958;12.492;2023-09-19T14:22:23;10.32;;;2.65;;
40373;SDS011;26079;45.958;12.492;2023-09-19T14:24:52;9.88;;;2.67;;
40373;SDS011;26079;45.958;12.492;2023-09-19T14:27:18;18.35;;;3.70;;
40373;SDS011;26079;45.958;12.492;2023-09-19T14:29:44;8.43;;;3.08;;
40373;SDS011;26079;45.958;12.492;2023-09-19T14:32:09;20.85;;;3.03;;
40373;SDS011;26079;45.958;12.492;2023-09-19T14:34:36;10.32;;;2.08;;
40373;SDS011;26079;45.958;12.492;2023-09-19T14:37:06;9.70;;;2.67;;
40373;SDS011;26079;45.958;12.492;2023-09-19T14:39:36;9.20;;;3.00;;
40373;SDS011;26079;45.958;12.492;2023-09-19T14:42:04;9.60;;;2.72;;
40373;SDS011;26079;45.958;12.492;2023-09-19T14:44:30;12.52;;;2.72;;
40373;SDS011;26079;45.958;12.492;2023-09-19T14:46:56;12.88;;;2.92;;
40373;SDS011;26079;45.958;12.492;2023-09-19T14:49:21;7.15;;;2.85;;
40373;SDS011;26079;45.958;12.492;2023-09-19T14:51:47;9.98;;;2.95;;
40373;SDS011;26079;45.958;12.492;2023-09-19T14:54:12;14.60;;;3.40;;
40373;SDS011;26079;45.958;12.492;2023-09-19T14:56:42;7.07;;;2.97;;
40373;SDS011;26079;45.958;12.492;2023-09-19T14:59:08;13.48;;;2.92;;
40373;SDS011;26079;45.958;12.492;2023-09-19T15:01:49;13.55;;;3.63;;
40373;SDS011;26079;45.958;12.492;2023-09-19T15:04:18;13.05;;;3.00;;
40373;SDS011;26079;45.958;12.492;2023-09-19T15:06:46;10.00;;;2.80;;
40373;SDS011;26079;45.958;12.492;2023-09-19T15:09:13;10.43;;;2.78;;
40373;SDS011;26079;45.958;12.492;2023-09-19T15:11:38;6.65;;;2.35;;
40373;SDS011;26079;45.958;12.492;2023-09-19T15:14:04;5.80;;;2.47;;
40373;SDS011;26079;45.958;12.492;2023-09-19T15:16:29;5.13;;;2.67;;
40373;SDS011;26079;45.958;12.492;2023-09-19T15:18:56;13.27;;;4.47;;
40373;SDS011;26079;45.958;12.492;2023-09-19T15:21:23;8.65;;;2.85;;
40373;SDS011;26079;45.958;12.492;2023-09-19T15:23:49;18.13;;;3.17;;
40373;SDS011;26079;45.958;12.492;2023-09-19T15:26:15;9.82;;;2.42;;
40373;SDS011;26079;45.958;12.492;2023-09-19T15:28:46;6.55;;;2.92;;
40373;SDS011;26079;45.958;12.492;2023-09-19T15:31:13;11.93;;;3.47;;
40373;SDS011;26079;45.958;12.492;2023-09-19T15:33:39;8.77;;;3.47;;
40373;SDS011;26079;45.958;12.492;2023-09-19T15:36:06;6.65;;;3.08;;
40373;SDS011;26079;45.958;12.492;2023-09-19T15:41:25;9.80;;;3.38;;
40373;SDS011;26079;45.958;12.492;2023-09-19T15:43:52;11.43;;;3.55;;
40373;SDS011;26079;45.958;12.492;2023-09-19T15:46:18;5.57;;;2.72;;
40373;SDS011;26079;45.958;12.492;2023-09-19T15:48:44;8.52;;;3.50;;
40373;SDS011;26079;45.958;12.492;2023-09-19T15:51:11;8.38;;;3.33;;
40373;SDS011;26079;45.958;12.492;2023-09-19T15:53:47;11.52;;;2.90;;
40373;SDS011;26079;45.958;12.492;2023-09-19T15:56:14;8.60;;;2.80;;
40373;SDS011;26079;45.958;12.492;2023-09-19T15:58:43;7.38;;;2.35;;
40373;SDS011;26079;45.958;12.492;2023-09-19T16:01:10;5.85;;;2.45;;
40373;SDS011;26079;45.958;12.492;2023-09-19T16:03:41;8.55;;;2.63;;